• Join FlightAware (Why Join?)
  • Login
  • US Flag 
10:53PM EDT


 

Airport Tracker/Info


-or-


 

Live Flight TrackerFlight Track Log ✈ DAL268 ✈ 22-Jul-2013 ✈ KSFO - KJFK

Flight Track Log - Related Links

Times and Time Zones

All times are in EDT time to prevent confusion due to time zone crossing. See the DAL268 flight status page for this flight to view local times or setup timezone preferences in your user account.

Time Position Orientation Groundspeed Altitude Reporting Facility
EDT Latitude Longitude Course Direction KTS MPH feet Rate Location/Type
02:37PM 37.6160 -122.3820 North 2 2  Level FlightAware
02:40PM 37.6160 -122.3810 90° East 2 2  Level FlightAware
02:42PM 37.7733 -122.2101 38° Northeast  Level FlightAware Approximate
02:43PM 37.8689 -122.1145 38° Northeast  Level FlightAware Approximate
02:44PM 37.9645 -122.0189 38° Northeast  Level FlightAware Approximate
02:45PM 38.0530 -121.9224 35° Northeast  Level FlightAware Approximate
02:45PM 37.6100 -122.3840 38° Northeast 24 28  Level FlightAware
02:46PM 38.1516 -121.8317 38° Northeast  Level FlightAware Approximate
02:46PM 37.6080 -122.3850 202° Southwest 24 28  Level FlightAware
02:46PM 37.6070 -122.3840 142° Southeast 20 23  Level FlightAware
02:49PM 37.8053 -122.1781 38° Northeast  Level FlightAware Approximate
02:49PM 37.6060 -122.3840 38° Northeast 13 15  Level FlightAware
02:49PM 37.6060 -122.3830 90° East 16 18  Level FlightAware
02:52PM 37.8341 -122.1492 38° Northeast  Level FlightAware Approximate
02:53PM 37.9297 -122.0537 38° Northeast  Level FlightAware Approximate
02:54PM 38.0165 -121.9543 35° Northeast  Level FlightAware Approximate
02:55PM 38.1168 -121.8665 38° Northeast  Level FlightAware Approximate
02:56PM 38.2125 -121.7708 38° Northeast  Level FlightAware Approximate
02:57PM 38.3083 -121.6750 38° Northeast  Level FlightAware Approximate
02:58PM 38.4042 -121.5792 38° Northeast  Level FlightAware Approximate
02:59PM 38.4824 -121.4624 46° Northeast  Level FlightAware Approximate
02:59PM 37.6070 -122.3800 90° East 19 22  Level FlightAware
03:01PM 37.6252 -122.3680 28° Northeast 169 194 200 360 Climbing FlightAware ADS-B
03:01PM 37.6336 -122.3630 25° Northeast 162 186 800 2,700 Climbing FlightAware ADS-B
03:01PM 37.6384 -122.3580 40° Northeast 165 190 1,100 2,460 Climbing FlightAware ADS-B
03:01PM 37.6409 -122.3550 44° Northeast 171 197 1,300 1,680 Climbing FlightAware ADS-B
03:01PM 37.6426 -122.3530 43° Northeast 175 201 1,300 1,380 Level FlightAware ADS-B
03:02PM 37.6512 -122.3420 45° Northeast 194 223 1,700 1,560 Climbing FlightAware ADS-B
03:02PM 37.6621 -122.3280 45° Northeast 213 245 2,100 1,500 Climbing FlightAware ADS-B
03:02PM 37.6698 -122.3190 43° Northeast 222 255 2,400 1,800 Climbing FlightAware ADS-B
03:02PM 37.6819 -122.3050 42° Northeast 238 274 2,900 1,560 Climbing FlightAware ADS-B
03:03PM 37.6975 -122.2860 44° Northeast 261 300 3,300 1,560 Climbing FlightAware ADS-B
03:03PM 37.7110 -122.2690 45° Northeast 273 314 3,800 1,860 Climbing FlightAware ADS-B
03:03PM 37.7263 -122.2500 44° Northeast 284 327 4,300 2,040 Climbing FlightAware ADS-B
03:03PM 37.7422 -122.2340 39° Northeast 293 337 4,900 2,760 Climbing FlightAware ADS-B
03:04PM 37.7578 -122.2180 39° Northeast 289 333 5,700 3,000 Climbing FlightAware ADS-B
03:04PM 37.7765 -122.2000 37° Northeast 291 335 6,500 2,580 Climbing FlightAware ADS-B
03:04PM 37.7931 -122.1840 37° Northeast 297 342 7,100 2,400 Climbing FlightAware ADS-B
03:04PM 37.8094 -122.1690 36° Northeast 301 346 7,700 2,700 Climbing FlightAware ADS-B
03:05PM 37.8270 -122.1520 37° Northeast 297 342 8,500 2,880 Climbing FlightAware ADS-B
03:05PM 37.8436 -122.1360 37° Northeast 295 339 9,200 2,760 Climbing FlightAware ADS-B
03:05PM 37.8621 -122.1180 38° Northeast 294 338 10,000 1,860 Climbing FlightAware ADS-B
03:06PM 37.8920 -122.0890 37° Northeast 316 364 10,600 1,140 Climbing FlightAware ADS-B
03:06PM 37.9289 -122.0540 37° Northeast 342 394 11,100 1,260 Climbing FlightAware ADS-B
03:07PM 37.9686 -122.0150 38° Northeast 356 410 11,900 1,500 Climbing FlightAware ADS-B
03:07PM 38.0176 -121.9670 38° Northeast 374 430 12,800 1,500 Climbing FlightAware ADS-B
03:08PM 38.0750 -121.9030 41° Northeast 387 445 13,900 1,680 Climbing FlightAware
03:09PM 38.1090 -121.8200 62° Northeast 394 453 15,200 1,920 Climbing FlightAware
03:09PM 38.1440 -121.7280 64° Northeast 404 465 16,600 1,800 Climbing FlightAware
03:10PM 38.1770 -121.6400 64° Northeast 411 473 17,800 1,740 Climbing FlightAware
03:10PM 38.1941 -121.5950 64° Northeast 404 465 18,400 1,380 Climbing FlightAware ADS-B
03:11PM 38.2204 -121.5270 64° Northeast 419 482 19,000 1,320 Climbing FlightAware ADS-B
03:12PM 38.2910 -121.4060 53° Northeast 421 484 20,500 1,500 Climbing FlightAware
03:13PM 38.3450 -121.3260 49° Northeast 426 490 21,600 1,560 Climbing FlightAware
03:13PM 38.4060 -121.2350 49° Northeast 435 501 22,800 1,440 Climbing FlightAware
03:14PM 38.4580 -121.1580 49° Northeast 441 507 23,700 1,320 Climbing FlightAware
03:15PM 38.5140 -121.0740 50° Northeast 448 516 24,600 1,200 Climbing FlightAware
03:15PM 38.5740 -120.9850 49° Northeast 458 527 25,500 1,140 Climbing FlightAware
03:16PM 38.6270 -120.9060 49° Northeast 466 536 26,200 1,020 Climbing FlightAware
03:17PM 38.6950 -120.8040 49° Northeast 474 545 27,000 1,020 Climbing FlightAware
03:18PM 38.7520 -120.7180 50° Northeast 480 552 27,700 1,260 Climbing FlightAware
03:18PM 38.8150 -120.6220 50° Northeast 478 550 28,800 1,260 Climbing FlightAware
03:19PM 38.8690 -120.5410 49° Northeast 479 551 29,500 1,140 Climbing FlightAware
03:20PM 38.9270 -120.4530 50° Northeast 481 554 30,300 960 Climbing FlightAware
03:20PM 38.9850 -120.3650 50° Northeast 488 562 30,800 780 Climbing FlightAware
03:21PM 39.0310 -120.2940 50° Northeast 488 562 31,300 960 Climbing FlightAware
03:21PM 39.0900 -120.2050 49° Northeast 489 563 32,000 960 Climbing FlightAware
03:22PM 39.1450 -120.1200 50° Northeast 487 560 32,600 960 Climbing FlightAware
03:23PM 39.2060 -120.0260 50° Northeast 487 560 33,300 840 Climbing FlightAware
03:24PM 39.2720 -119.9240 50° Northeast 490 564 33,900 780 Climbing FlightAware
03:24PM 39.3210 -119.8480 50° Northeast 489 563 34,400 840 Climbing FlightAware
03:25PM 39.3820 -119.7540 50° Northeast 489 563 35,000 360 Climbing FlightAware
03:26PM 39.4460 -119.6550 50° Northeast 495 570 35,000  Level FlightAware
03:26PM 39.4860 -119.5910 51° Northeast 498 573 35,000  Level FlightAware
03:27PM 39.5430 -119.5020 50° Northeast 499 574 35,000  Level FlightAware
03:27PM 39.6020 -119.4100 50° Northeast 500 575 35,000  Level FlightAware
03:28PM 39.6460 -119.3410 50° Northeast 502 578 35,000 240 Level FlightAware
03:29PM 39.7110 -119.2380 51° Northeast 504 580 35,300 540 Climbing FlightAware
03:29PM 39.7530 -119.1720 50° Northeast 503 579 35,700 720 Climbing FlightAware
03:30PM 39.8040 -119.0920 50° Northeast 502 578 36,100 660 Climbing FlightAware
03:30PM 39.8670 -118.9910 51° Northeast 501 577 36,600 660 Climbing FlightAware
03:31PM 39.9090 -118.9240 51° Northeast 501 577 36,900 360 Climbing FlightAware
03:31PM 39.9630 -118.8380 51° Northeast 501 577 37,000 60 Climbing FlightAware
03:32PM 40.0200 -118.7470 51° Northeast 499 574 37,000  Level FlightAware
03:33PM 40.0790 -118.6520 51° Northeast 500 575 37,000  Level FlightAware
03:33PM 40.1270 -118.5600 56° Northeast 501 577 37,000  Level FlightAware
03:34PM 40.1630 -118.4450 68° East 503 579 37,000  Level FlightAware
03:35PM 40.1970 -118.3190 71° East 504 580 37,000  Level FlightAware
03:36PM 40.2250 -118.2150 71° East 504 580 37,000  Level FlightAware
03:36PM 40.2690 -118.0530 70° East 505 581 37,000  Level FlightAware
03:37PM 40.3000 -117.9390 70° East 504 580 37,000  Level FlightAware
03:38PM 40.3270 -117.8370 71° East 504 580 37,000  Level FlightAware
03:39PM 40.3730 -117.6690 70° East 505 581 37,000  Level FlightAware
03:39PM 40.3980 -117.5810 70° East 505 581 37,000  Level FlightAware
03:40PM 40.4230 -117.4900 70° East 505 581 37,000  Level FlightAware
03:41PM 40.4720 -117.3110 70° East 505 581 37,000  Level FlightAware
03:42PM 40.4890 -117.2520 69° East 505 581 37,000  Level FlightAware
03:42PM 40.5290 -117.1070 70° East 505 581 37,000  Level FlightAware
03:43PM 40.5540 -117.0160 70° East 505 581 37,000  Level FlightAware
03:44PM 40.5950 -116.8690 70° East 505 581 37,000  Level FlightAware
03:45PM 40.6270 -116.7510 70° East 505 581 37,000  Level FlightAware
03:46PM 40.6520 -116.6620 70° East 505 581 37,000  Level FlightAware
03:46PM 40.6840 -116.5440 70° East 505 581 37,000  Level FlightAware
03:47PM 40.7090 -116.4560 69° East 505 581 37,000  Level FlightAware
03:47PM 40.8573 -116.1810 54° Northeast 514 592 37,000  Level FlightAware ADS-B
03:48PM 40.9063 -116.0530 63° Northeast 515 593 37,000  Level FlightAware ADS-B
03:49PM 40.9394 -115.9660 63° Northeast 516 594 37,000  Level FlightAware ADS-B
03:49PM 40.9723 -115.8800 63° Northeast 517 595 37,000  Level FlightAware ADS-B
03:50PM 41.0500 -115.6750 63° Northeast 517 595 37,000  Level FlightAware ADS-B
03:51PM 41.1190 -115.4920 63° Northeast 517 595 37,000  Level FlightAware
03:52PM 41.1710 -115.3510 64° Northeast 518 596 37,000  Level FlightAware
03:53PM 41.2177 -115.2270 63° Northeast 519 597 37,000  Level FlightAware ADS-B
03:54PM 41.2499 -115.1400 64° Northeast 519 597 37,000  Level FlightAware ADS-B
03:54PM 41.2820 -115.0530 64° Northeast 520 598 37,000  Level FlightAware ADS-B
03:55PM 41.3141 -114.9660 64° Northeast 520 598 37,000  Level FlightAware ADS-B
03:55PM 41.3461 -114.8790 64° Northeast 519 597 37,000  Level FlightAware ADS-B
03:56PM 41.3940 -114.7550 63° Northeast 519 597 37,000  Level FlightAware
03:56PM 41.4329 -114.6420 65° Northeast 519 597 37,000  Level FlightAware ADS-B
03:57PM 41.4645 -114.5540 64° Northeast 520 598 37,000  Level FlightAware ADS-B
03:57PM 41.4962 -114.4670 64° Northeast 519 597 37,000  Level FlightAware ADS-B
03:58PM 41.5284 -114.3780 64° Northeast 520 598 37,000  Level FlightAware ADS-B
03:58PM 41.5599 -114.2910 64° Northeast 521 600 37,000  Level FlightAware ADS-B
03:59PM 41.5936 -114.1970 64° Northeast 521 600 37,000  Level FlightAware ADS-B
03:59PM 41.6247 -114.1100 64° Northeast 522 601 37,000  Level FlightAware ADS-B
04:00PM 41.6730 -113.9740 65° Northeast 522 601 37,000  Level FlightAware
04:01PM 41.7042 -113.8860 65° Northeast 522 601 37,000  Level FlightAware ADS-B
04:01PM 41.7357 -113.7970 65° Northeast 525 604 37,000  Level FlightAware ADS-B
04:02PM 41.7668 -113.7090 65° Northeast 525 604 37,000  Level FlightAware ADS-B
04:02PM 41.7976 -113.6210 65° Northeast 525 604 37,000  Level FlightAware ADS-B
04:03PM 41.8342 -113.5170 65° Northeast 524 603 37,000  Level FlightAware ADS-B
04:04PM 41.8910 -113.3530 65° Northeast 526 605 37,000  Level FlightAware
04:04PM 41.9335 -113.2310 65° Northeast 524 603 37,000  Level FlightAware ADS-B
04:05PM 41.9775 -113.1040 65° Northeast 529 609 37,000  Level FlightAware ADS-B
04:06PM 42.0240 -112.9700 65° Northeast 528 608 37,000  Level FlightAware
04:06PM 42.0438 -112.9110 66° East 530 610 37,000  Level FlightAware ADS-B
04:07PM 42.1050 -112.7310 65° Northeast 525 604 37,000  Level FlightAware
04:08PM 42.1460 -112.6100 65° Northeast 524 603 37,000  Level FlightAware
04:09PM 42.1870 -112.4880 66° East 525 604 37,000  Level FlightAware
04:09PM 42.2214 -112.3860 65° Northeast 526 605 37,000  Level FlightAware ADS-B
04:10PM 42.2740 -112.2250 66° East 525 604 37,000  Level FlightAware
04:10PM 42.2930 -112.1660 66° East 526 605 37,000  Level FlightAware
04:11PM 42.3376 -112.0290 66° East 528 608 37,000  Level FlightAware ADS-B
04:12PM 42.3674 -111.9370 66° East 528 608 37,000  Level FlightAware ADS-B
04:13PM 42.4170 -111.7830 66° East 530 610 37,000  Level FlightAware ADS-B
04:14PM 42.4779 -111.5920 67° East 530 610 37,100  Climbing FlightAware ADS-B
04:14PM 42.5208 -111.4570 67° East 529 609 37,000 -120 Descending FlightAware ADS-B
04:15PM 42.5610 -111.3300 67° East 531 611 37,000  Level FlightAware
04:16PM 42.5950 -111.2260 66° East 531 611 37,000  Level FlightAware
04:16PM 42.6231 -111.1331 66° East 529 609 37,000  Level Salt Lake Center
04:17PM 42.6847 -110.9369 67° East 528 608 37,000  Level Salt Lake Center
04:18PM 42.7378 -110.7631 67° East 524 603 37,000  Level Salt Lake Center
04:19PM 42.8011 -110.5592 67° East 524 603 37,000  Level Salt Lake Center
04:20PM 42.8542 -110.3839 68° East 524 603 37,000  Level Salt Lake Center
04:21PM 42.9164 -110.1803 67° East 524 603 37,000  Level Salt Lake Center
04:22PM 42.9686 -110.0056 68° East 522 601 37,000  Level Salt Lake Center
04:23PM 43.0314 -109.7936 68° East 528 608 37,000  Level Salt Lake Center
04:25PM 43.0861 -109.6100 68° East 526 605 37,000  Level Salt Lake Center
04:26PM 43.1406 -109.4242 68° East 527 606 37,000  Level Salt Lake Center
04:27PM 43.1950 -109.2397 68° East 526 605 37,000  Level Salt Lake Center
04:28PM 43.2478 -109.0578 68° East 518 596 37,000  Level Salt Lake Center
04:29PM 43.2997 -108.8728 69° East 520 598 37,000  Level Salt Lake Center
04:30PM 43.3642 -108.6508 68° East 523 602 37,000  Level Salt Lake Center
04:31PM 43.4169 -108.4650 69° East 523 602 37,000  Level Salt Lake Center
04:32PM 43.4692 -108.2789 69° East 525 604 37,000  Level Salt Lake Center
04:33PM 43.5233 -108.0964 68° East 521 600 37,000  Level Salt Lake Center
04:34PM 43.5778 -107.9117 68° East 523 602 37,000  Level Salt Lake Center
04:35PM 43.6331 -107.7253 68° East 526 605 37,000  Level Salt Lake Center
04:36PM 43.7331 -107.5347 54° Northeast 515 593 37,000  Level Salt Lake Center
04:37PM 43.8247 -107.3881 49° Northeast 507 583 37,000  Level Salt Lake Center
04:38PM 43.9161 -107.2414 49° Northeast 507 583 37,000  Level Salt Lake Center
04:39PM 44.0114 -107.0897 49° Northeast 510 587 37,000  Level Denver Center
04:40PM 44.0858 -106.9739 48° Northeast 509 586 37,000  Level Denver Center
04:41PM 44.1569 -106.7378 67° East 531 611 37,000  Level Denver Center
04:42PM 44.1750 -106.5453 82° East 524 603 37,000  Level Denver Center
04:43PM 44.1997 -106.3144 81° East 532 612 37,000  Level Salt Lake Center
04:44PM 44.2128 -106.1225 85° East 530 610 37,000  Level Denver Center
04:45PM 44.2306 -105.8992 84° East 523 602 37,000  Level Denver Center
04:46PM 44.2481 -105.7039 83° East 526 605 37,000  Level Denver Center
04:47PM 44.2631 -105.5094 84° East 527 606 37,000  Level Denver Center
04:48PM 44.2803 -105.2819 84° East 527 606 37,000  Level Denver Center
04:49PM 44.2950 -105.0864 84° East 528 608 37,000  Level Denver Center
04:50PM 44.3108 -104.8614 84° East 524 603 37,000  Level Denver Center
04:51PM 44.3256 -104.6664 84° East 525 604 37,000  Level Denver Center
04:52PM 44.3403 -104.4392 85° East 526 605 37,000  Level Denver Center
04:53PM 44.3542 -104.2422 84° East 530 610 37,000  Level Denver Center
04:54PM 44.3692 -104.0150 85° East 528 608 37,000  Level Denver Center
04:55PM 44.3814 -103.8181 85° East 530 610 37,000  Level Denver Center
04:57PM 44.3933 -103.6206 85° East 530 610 37,000  Level Denver Center
04:58PM 44.4097 -103.3600 85° East 526 605 37,000  Level Denver Center
04:59PM 44.4258 -103.0894 85° East 526 605 37,000  Level Denver Center
05:00PM 44.4353 -102.9256 85° East 529 609 37,000  Level Denver Center
05:01PM 44.4469 -102.6783 86° East 530 610 37,000  Level Denver Center
05:02PM 44.4583 -102.4739 85° East 530 610 37,000  Level Denver Center
05:03PM 44.4692 -102.2681 86° East 532 612 37,000  Level Denver Center
05:04PM 44.4772 -102.1036 86° East 531 611 37,000  Level Denver Center
05:05PM 44.4894 -101.8150 87° East 531 611 37,000  Level Denver Center
05:06PM 44.4972 -101.6083 87° East 533 613 37,000  Level Denver Center
05:07PM 44.5050 -101.4031 87° East 532 612 37,000  Level Denver Center
05:08PM 44.5117 -101.1967 87° East 531 611 37,000  Level Denver Center
05:09PM 44.5194 -100.9883 87° East 535 616 37,000  Level Denver Center
05:10PM 44.5281 -100.7831 87° East 535 616 37,000  Level Minneapolis Center
05:11PM 44.5353 -100.5772 87° East 535 616 37,000  Level Minneapolis Center
05:12PM 44.5428 -100.3714 87° East 533 613 37,000  Level Minneapolis Center
05:13PM 44.5483 -100.1658 88° East 533 613 37,000  Level Minneapolis Center
05:14PM 44.5542 -99.9611 88° East 532 612 37,000  Level Minneapolis Center
05:15PM 44.5614 -99.7150 88° East 532 612 37,000  Level Minneapolis Center
05:16PM 44.5664 -99.5097 88° East 532 612 37,000  Level Minneapolis Center
05:17PM 44.5711 -99.3044 88° East 532 612 37,000  Level Minneapolis Center
05:23PM 44.5930 -98.2030 88° East 527 606 37,000  Level FlightAware
05:23PM 44.5940 -98.0880 89° East 527 606 37,000  Level FlightAware
05:24PM 44.5950 -97.9830 89° East 527 606 37,000  Level FlightAware
05:25PM 44.5970 -97.8430 89° East 527 606 37,000  Level FlightAware
05:25PM 44.5980 -97.7390 89° East 527 606 37,000  Level FlightAware
05:26PM 44.7130 -97.5030 56° Northeast 510 587 37,000  Level FlightAware
05:27PM 44.7450 -97.3750 71° East 512 589 37,000  Level FlightAware
05:28PM 44.7750 -97.2510 71° East 512 589 37,000  Level FlightAware
05:28PM 44.8020 -97.1410 71° East 511 588 37,000  Level FlightAware
05:29PM 44.8330 -97.0110 71° East 509 586 37,000  Level FlightAware
05:30PM 44.8660 -96.8730 71° East 510 587 37,000  Level FlightAware
05:30PM 44.8980 -96.7410 71° East 511 588 37,000  Level FlightAware
05:31PM 44.9310 -96.5970 72° East 513 590 37,000  Level FlightAware
05:32PM 44.9600 -96.4770 71° East 512 589 37,000  Level FlightAware
05:32PM 44.9920 -96.3380 72° East 513 590 37,000  Level FlightAware
05:33PM 45.0250 -96.1980 72° East 515 593 37,000  Level FlightAware
05:34PM 45.0540 -96.0710 72° East 518 596 37,000  Level FlightAware
05:35PM 45.0860 -95.9310 72° East 520 598 37,000  Level FlightAware
05:35PM 45.1160 -95.8010 72° East 520 598 37,000  Level FlightAware
05:36PM 45.1480 -95.6570 72° East 521 600 37,000  Level FlightAware
05:37PM 45.1770 -95.5290 72° East 521 600 37,000  Level FlightAware
05:37PM 45.2040 -95.4120 72° East 520 598 37,000  Level FlightAware
05:38PM 45.2340 -95.2740 73° East 520 598 37,000  Level FlightAware
05:39PM 45.2660 -95.1310 72° East 522 601 37,000  Level FlightAware
05:39PM 45.2950 -95.0000 72° East 522 601 37,000  Level FlightAware
05:40PM 45.3230 -94.8710 73° East 523 602 37,000  Level FlightAware
05:41PM 45.3540 -94.7260 73° East 522 601 37,000  Level FlightAware
05:41PM 45.3850 -94.5820 73° East 522 601 37,000  Level FlightAware
05:42PM 45.4080 -94.4780 72° East 522 601 37,000  Level FlightAware
05:43PM 45.4380 -94.3330 74° East 523 602 37,000  Level FlightAware
05:43PM 45.4670 -94.1970 73° East 522 601 37,000  Level FlightAware
05:44PM 45.4920 -94.0770 73° East 523 602 37,000  Level FlightAware
05:44PM 45.5100 -93.9910 73° East 523 602 37,000  Level FlightAware
05:45PM 45.5430 -93.8310 74° East 524 603 37,000  Level FlightAware
05:46PM 45.5730 -93.6870 73° East 525 604 37,000  Level FlightAware
05:47PM 45.6010 -93.5520 73° East 524 603 37,000  Level FlightAware
05:47PM 45.6260 -93.4270 74° East 524 603 37,000  Level FlightAware
05:48PM 45.6530 -93.2950 74° East 525 604 37,000  Level FlightAware
05:49PM 45.6800 -93.1600 74° East 526 605 37,000  Level FlightAware
05:49PM 45.7010 -93.0560 74° East 524 603 37,000  Level FlightAware
05:50PM 45.7340 -92.8900 74° East 522 601 37,000  Level FlightAware
05:51PM 45.7600 -92.7550 75° East 522 601 37,000  Level FlightAware
05:51PM 45.7880 -92.6110 74° East 520 598 37,000  Level FlightAware
05:52PM 45.8130 -92.4810 75° East 518 596 37,000  Level FlightAware
05:53PM 45.8400 -92.3410 74° East 516 594 37,000  Level FlightAware
05:53PM 45.8620 -92.1990 77° East 515 593 37,000  Level FlightAware
05:54PM 45.8510 -92.0750 97° East 512 589 37,000  Level FlightAware
05:55PM 45.8270 -91.9340 104° East 513 590 37,000  Level FlightAware
05:56PM 45.8000 -91.7890 105° East 514 592 37,000  Level FlightAware
05:56PM 45.7750 -91.6560 105° East 515 593 37,000  Level FlightAware
05:57PM 45.7480 -91.5100 105° East 516 594 37,000  Level FlightAware
05:58PM 45.7270 -91.3950 105° East 515 593 37,000  Level FlightAware
05:58PM 45.7000 -91.2510 105° East 514 592 37,000  Level FlightAware
05:59PM 45.6760 -91.1210 105° East 513 590 37,000  Level FlightAware
06:00PM 45.6500 -90.9840 105° East 515 593 37,000  Level FlightAware
06:00PM 45.6230 -90.8400 105° East 514 592 37,000  Level FlightAware
06:01PM 45.5970 -90.7080 106° East 515 593 37,000  Level FlightAware
06:02PM 45.5490 -90.4810 107° East 514 592 37,000  Level FlightAware
06:03PM 45.5160 -90.3570 111° Southeast 507 583 37,000  Level FlightAware
06:03PM 45.4850 -90.2430 111° Southeast 512 589 37,000  Level FlightAware
06:04PM 45.4460 -90.1050 112° Southeast 521 600 37,000  Level FlightAware
06:05PM 45.3960 -89.9770 119° Southeast 518 596 37,000 360 Level FlightAware
06:06PM 45.3430 -89.8500 121° Southeast 515 593 37,600 900 Climbing FlightAware
06:06PM 45.2940 -89.7360 121° Southeast 512 589 38,300 1,020 Climbing FlightAware
06:07PM 45.2480 -89.6300 122° Southeast 506 582 39,000 480 Climbing FlightAware
06:08PM 45.1900 -89.5020 123° Southeast 504 580 39,000  Level FlightAware
06:08PM 45.1380 -89.3900 123° Southeast 511 588 39,000  Level FlightAware
06:09PM 45.0830 -89.2600 121° Southeast 513 590 39,000  Level FlightAware
06:10PM 45.0490 -89.1460 113° Southeast 515 593 39,000  Level FlightAware
06:10PM 45.0210 -89.0000 105° East 511 588 39,000  Level FlightAware
06:11PM 45.0010 -88.8730 103° East 516 594 39,000  Level FlightAware
06:12PM 44.9750 -88.7190 103° East 519 597 39,000  Level FlightAware
06:13PM 44.9510 -88.5750 103° East 521 600 39,000  Level FlightAware
06:14PM 44.9200 -88.3840 103° East 517 595 39,000  Level FlightAware
06:14PM 44.8950 -88.2390 104° East 515 593 39,000  Level FlightAware
06:15PM 44.8750 -88.1080 102° East 515 593 39,000  Level FlightAware
06:16PM 44.8600 -87.9520 98° East 518 596 39,000  Level FlightAware
06:16PM 44.8490 -87.8280 97° East 519 597 39,000  Level FlightAware
06:17PM 44.8390 -87.7120 97° East 519 597 39,000  Level FlightAware
06:18PM 44.8260 -87.5640 97° East 521 600 39,000  Level FlightAware
06:18PM 44.8160 -87.4410 96° East 522 601 39,000  Level FlightAware
06:19PM 44.8060 -87.3170 96° East 522 601 39,000  Level FlightAware
06:19PM 44.8010 -87.2480 96° East 522 601 39,000  Level FlightAware
06:21PM 44.7780 -87.0040 97° East 522 601 39,000  Level FlightAware
06:21PM 44.7650 -86.8590 97° East 517 595 39,000  Level FlightAware
06:22PM 44.7510 -86.7050 97° East 515 593 39,000  Level FlightAware
06:22PM 44.7470 -86.6690 99° East 514 592 39,000  Level FlightAware
06:24PM 44.7220 -86.4040 97° East 512 589 39,000  Level FlightAware
06:24PM 44.7080 -86.2500 97° East 511 588 39,000  Level FlightAware
06:25PM 44.6950 -86.1190 98° East 509 586 39,000  Level FlightAware
06:26PM 44.6810 -85.9790 98° East 508 585 39,000  Level FlightAware
06:26PM 44.6700 -85.8690 98° East 508 585 39,000  Level FlightAware
06:27PM 44.6550 -85.7210 98° East 506 582 39,000  Level FlightAware
06:28PM 44.6420 -85.5950 98° East 506 582 39,000  Level FlightAware
06:28PM 44.6300 -85.4760 98° East 507 583 39,000  Level FlightAware
06:29PM 44.6160 -85.3420 98° East 506 582 39,000  Level FlightAware
06:30PM 44.6020 -85.2100 98° East 505 581 39,000  Level FlightAware
06:30PM 44.5890 -85.0860 98° East 505 581 39,000  Level FlightAware
06:31PM 44.5750 -84.9580 99° East 505 581 39,000  Level FlightAware
06:32PM 44.5600 -84.8160 98° East 506 582 39,000  Level FlightAware
06:32PM 44.5460 -84.6920 99° East 510 587 39,000  Level FlightAware
06:33PM 44.5290 -84.5400 99° East 509 586 39,000  Level FlightAware
06:34PM 44.5140 -84.4090 99° East 509 586 39,000  Level FlightAware
06:34PM 44.4990 -84.2710 99° East 508 585 39,000  Level FlightAware
06:35PM 44.4860 -84.1640 100° East 508 585 39,000  Level FlightAware
06:36PM 44.4700 -84.0210 99° East 505 581 39,000  Level FlightAware
06:36PM 44.4550 -83.8960 100° East 503 579 39,000  Level FlightAware
06:37PM 44.4400 -83.7730 100° East 502 578 39,000  Level FlightAware
06:38PM 44.4240 -83.6370 99° East 498 573 39,000  Level FlightAware
06:38PM 44.4080 -83.5060 100° East 495 570 39,000  Level FlightAware
06:39PM 44.3920 -83.3730 100° East 491 565 39,000  Level FlightAware
06:40PM 44.3760 -83.2470 100° East 491 565 39,000  Level FlightAware
06:41PM 44.3590 -83.1110 100° East 494 568 39,000  Level FlightAware
06:41PM 44.3440 -82.9900 100° East 496 571 39,000  Level FlightAware
06:42PM 44.3280 -82.8610 100° East 498 573 39,000  Level FlightAware
06:42PM 44.3130 -82.7450 100° East 499 574 39,000  Level FlightAware
06:43PM 44.2940 -82.6020 100° East 502 578 39,000  Level FlightAware
06:44PM 44.2740 -82.4470 100° East 503 579 39,000  Level FlightAware
06:45PM 44.2560 -82.3120 100° East 502 578 39,000  Level FlightAware
06:45PM 44.2330 -82.1800 104° East 497 572 39,000  Level FlightAware
06:46PM 44.2060 -82.0530 106° East 495 570 39,000  Level FlightAware
06:47PM 44.1810 -81.9390 107° East 494 568 39,000  Level FlightAware
06:48PM 44.1500 -81.7930 106° East 493 567 39,000  Level FlightAware
06:48PM 44.1250 -81.6770 107° East 491 565 39,000  Level FlightAware
06:49PM 44.0930 -81.5330 107° East 489 563 39,000  Level FlightAware
06:50PM 44.0670 -81.4150 107° East 487 560 39,000  Level FlightAware
06:50PM 44.0380 -81.2810 107° East 488 562 39,000  Level FlightAware
06:51PM 44.0140 -81.1750 107° East 492 566 39,000  Level FlightAware
06:52PM 43.9870 -81.0530 107° East 496 571 39,000  Level FlightAware
06:52PM 43.9560 -80.9160 107° East 500 575 39,000  Level FlightAware
06:53PM 43.9320 -80.8090 107° East 502 578 39,000  Level FlightAware
06:54PM 43.9040 -80.6850 107° East 507 583 39,000  Level FlightAware
06:54PM 43.8720 -80.5470 108° East 512 589 39,000  Level FlightAware
06:55PM 43.8500 -80.4480 107° East 514 592 39,000  Level FlightAware
06:56PM 43.8150 -80.2980 108° East 515 593 39,000  Level FlightAware
06:56PM 43.7850 -80.1700 108° East 516 594 39,000  Level FlightAware
06:57PM 43.7570 -80.0470 107° East 518 596 39,000  Level FlightAware
06:58PM 43.7230 -79.9050 108° East 518 596 39,000  Level FlightAware
06:58PM 43.7000 -79.8080 108° East 517 595 39,000  Level FlightAware
06:59PM 43.6680 -79.6610 107° East 523 602 39,000  Level FlightAware
07:00PM 43.6640 -79.4770 92° East 542 624 39,000  Level FlightAware
07:01PM 43.6690 -79.3290 87° East 544 626 39,000  Level FlightAware
07:01PM 43.6750 -79.1710 87° East 546 628 39,000  Level FlightAware
07:02PM 43.6780 -79.0680 88° East 546 628 39,000  Level FlightAware
07:03PM 43.6840 -78.9080 87° East 541 623 39,000  Level FlightAware
07:03PM 43.6880 -78.7720 88° East 538 619 39,000  Level FlightAware
07:04PM 43.6920 -78.6220 88° East 537 618 39,000  Level FlightAware
07:05PM 43.6960 -78.4840 88° East 538 619 39,000  Level FlightAware
07:05PM 43.7000 -78.3410 88° East 539 620 39,000  Level FlightAware
07:06PM 43.7040 -78.2010 88° East 540 621 39,000  Level FlightAware
07:07PM 43.7070 -78.0580 88° East 542 624 39,000  Level FlightAware
07:07PM 43.7100 -77.9260 88° East 544 626 39,000  Level FlightAware
07:08PM 43.7130 -77.7880 88° East 545 627 39,000  Level FlightAware
07:09PM 43.7160 -77.6460 88° East 546 628 39,000  Level FlightAware
07:09PM 43.7190 -77.5120 88° East 547 629 39,000  Level FlightAware
07:10PM 43.7220 -77.3670 88° East 548 631 39,000  Level FlightAware
07:11PM 43.7240 -77.2280 89° East 548 631 39,000  Level FlightAware
07:11PM 43.7260 -77.1030 89° East 548 631 39,000  Level FlightAware
07:12PM 43.7290 -76.9490 88° East 548 631 39,000  Level FlightAware
07:13PM 43.7230 -76.7690 93° East 535 616 39,000  Level FlightAware
07:14PM 43.6910 -76.6730 115° Southeast 510 587 39,000  Level FlightAware
07:14PM 43.6330 -76.5870 133° Southeast 498 573 39,000  Level FlightAware
07:15PM 43.5790 -76.4710 123° Southeast 525 604 39,000  Level FlightAware
07:16PM 43.5620 -76.3370 100° East 542 624 39,000  Level FlightAware
07:16PM 43.5680 -76.2040 86° East 544 626 39,000  Level FlightAware
07:17PM 43.5760 -76.0620 86° East 543 625 39,000  Level FlightAware
07:18PM 43.5850 -75.9060 85° East 543 625 39,000  Level FlightAware
07:18PM 43.5930 -75.7710 85° East 542 624 39,000  Level FlightAware
07:19PM 43.6000 -75.6430 86° East 543 625 39,000  Level FlightAware
07:20PM 43.6080 -75.5030 85° East 543 625 39,000  Level FlightAware
07:20PM 43.6170 -75.3370 86° East 545 627 39,000  Level FlightAware
07:21PM 43.6230 -75.2220 86° East 547 629 39,000  Level FlightAware
07:22PM 43.6280 -75.0730 87° East 549 632 39,000  Level FlightAware
07:22PM 43.6060 -74.9310 102° East 539 620 39,000  Level FlightAware
07:23PM 43.5590 -74.8260 122° Southeast 525 604 39,000  Level FlightAware
07:24PM 43.5020 -74.7370 131° Southeast 519 597 39,000  Level FlightAware
07:24PM 43.4230 -74.6180 132° Southeast 523 602 39,000  Level FlightAware
07:25PM 43.3510 -74.5080 132° Southeast 523 602 39,000  Level FlightAware
07:26PM 43.2820 -74.4040 132° Southeast 523 602 39,000  Level FlightAware
07:27PM 43.2110 -74.2980 133° Southeast 523 602 39,000  Level FlightAware
07:27PM 43.1470 -74.2020 132° Southeast 523 602 39,000  Level FlightAware
07:28PM 43.0870 -74.1130 133° Southeast 525 604 39,000  Level FlightAware
07:29PM 43.0170 -74.0080 132° Southeast 525 604 39,000  Level FlightAware
07:29PM 42.9590 -73.9220 133° Southeast 526 605 39,000  Level FlightAware
07:30PM 42.8860 -73.8130 132° Southeast 527 606 39,000  Level FlightAware
07:30PM 42.8330 -73.7360 133° Southeast 527 606 39,000  Level FlightAware
07:31PM 42.7550 -73.6220 133° Southeast 528 608 39,000  Level FlightAware
07:32PM 42.6880 -73.5240 133° Southeast 530 610 39,000  Level FlightAware
07:32PM 42.6539 -73.4733 132° Southeast 531 611 39,000  Level FlightAware ADS-B
07:33PM 42.5496 -73.3215 133° Southeast 532 612 39,000  Level FlightAware ADS-B
07:34PM 42.4780 -73.2179 133° Southeast 533 613 39,000  Level FlightAware ADS-B
07:35PM 42.3750 -73.0700 133° Southeast 534 615 39,000  Level FlightAware
07:36PM 42.3100 -72.9720 132° Southeast 537 618 39,000  Level FlightAware
07:36PM 42.2607 -72.8655 122° Southeast 534 615 39,000  Level FlightAware ADS-B
07:36PM 42.2534 -72.8464 117° Southeast 542 624 39,000  Level FlightAware ADS-B
07:37PM 42.2184 -72.7520 117° Southeast 542 624 39,000  Level FlightAware ADS-B
07:37PM 42.1751 -72.6328 116° Southeast 542 624 39,000  Level FlightAware ADS-B
07:38PM 42.1140 -72.4650 116° Southeast 541 623 39,000  Level FlightAware
07:39PM 42.0750 -72.3590 116° Southeast 541 623 39,000 -120 Level FlightAware
07:40PM 42.0170 -72.2290 121° Southeast 532 612 38,900 -420 Descending FlightAware
07:40PM 41.9540 -72.1380 133° Southeast 518 596 38,400 -1,380 Descending FlightAware
07:41PM 41.8890 -72.0460 133° Southeast 521 600 37,100 -2,580 Descending FlightAware
07:42PM 41.8180 -71.9450 133° Southeast 524 603 35,000 -2,100 Descending FlightAware
07:43PM 41.7090 -71.8490 147° Southeast 503 579 33,500 -2,760 Descending FlightAware
07:43PM 41.6500 -71.8470 179° South 484 557 31,100 -2,880 Descending FlightAware
07:44PM 41.5240 -71.8660 186° South 458 527 29,500 -840 Descending FlightAware
07:45PM 41.4200 -71.8850 188° South 458 527 29,500  Level FlightAware
07:46PM 41.3560 -71.8970 188° South 458 527 29,500  Level FlightAware
07:47PM 41.2700 -71.9130 188° South 458 527 29,500 -5,640 Level FlightAware
07:47PM 41.2210 -71.9870 229° Southwest 411 473 24,000 -6,900 Descending FlightAware
07:47PM 41.1740 -72.0360 218° Southwest 411 473 24,000  Level FlightAware
07:48PM 41.1130 -72.0990 218° Southwest 411 473 24,000  Level FlightAware
07:49PM 41.0670 -72.1470 218° Southwest 411 473 24,000 -4,800 Level FlightAware
07:49PM 41.0530 -72.2230 256° West 391 450 20,200 -5,160 Descending FlightAware
07:50PM 41.0220 -72.2900 238° Southwest 390 449 19,900 -2,280 Descending FlightAware
07:50PM 40.9770 -72.3930 240° Southwest 369 425 17,100 -2,940 Descending FlightAware
07:51PM 40.9429 -72.4687 239° Southwest 371 427 15,700 -1,680 Descending FlightAware ADS-B
07:52PM 40.8890 -72.5870 239° Southwest 357 411 14,200 -900 Descending FlightAware
07:53PM 40.8630 -72.6440 239° Southwest 357 411 14,200 -1,620 Level FlightAware
07:53PM 40.8230 -72.7320 239° Southwest 301 346 12,100 -1,560 Descending FlightAware
07:54PM 40.7959 -72.8113 246° West 291 335 11,900 -780 Descending FlightAware ADS-B
07:55PM 40.7760 -72.8760 248° West 286 329 11,000 -1,380 Descending FlightAware
07:56PM 40.7540 -72.9450 247° West 282 325 10,000 -1,440 Descending FlightAware
07:56PM 40.7394 -72.9922 248° West 281 323 9,300 -1,620 Descending FlightAware ADS-B
07:57PM 40.7325 -73.0284 256° West 282 325 8,700 -1,440 Descending FlightAware ADS-B
07:57PM 40.7240 -73.0820 258° West 276 318 8,000 -1,200 Descending FlightAware
07:57PM 40.7200 -73.1020 255° West 274 315 7,800 -1,200 Descending FlightAware
07:58PM 40.7120 -73.1500 258° West 271 312 7,200 -1,440 Descending FlightAware
07:58PM 40.7050 -73.1920 258° West 270 311 6,500 -1,440 Descending FlightAware
07:58PM 40.7010 -73.2170 258° West 270 311 6,200 -1,320 Descending FlightAware
07:59PM 40.7080 -73.2670 280° West 273 314 5,500 -1,020 Descending FlightAware
07:59PM 40.7140 -73.2830 296° West 266 306 5,500 -360 Level FlightAware
08:00PM 40.7490 -73.3650 299° West 232 267 5,100 -540 Descending FlightAware
08:01PM 40.7640 -73.3990 300° West 226 260 4,700 -660 Descending FlightAware
08:01PM 40.7730 -73.4200 300° West 215 247 4,600 -420 Descending FlightAware
08:01PM 40.7790 -73.4360 296° West 209 241 4,500 -540 Descending FlightAware
08:02PM 40.7970 -73.4670 307° West 201 231 4,200 -840 Descending FlightAware
08:02PM 40.8190 -73.4850 328° Northwest 203 234 3,700 -960 Descending FlightAware
08:03PM 40.8360 -73.5120 310° West 196 226 3,300 -600 Descending FlightAware
08:03PM 40.8350 -73.5470 268° West 182 209 3,100 -540 Descending FlightAware
08:04PM 40.8280 -73.5760 252° West 170 196 2,800 -540 Descending FlightAware
08:04PM 40.8210 -73.6020 250° West 169 194 2,600 -420 Descending FlightAware
08:04PM 40.8140 -73.6160 237° Southwest 163 188 2,500 -480 Descending FlightAware
08:05PM 40.8020 -73.6310 223° Southwest 151 174 2,300 -600 Descending FlightAware
08:05PM 40.7840 -73.6470 214° Southwest 146 168 2,000 -240 Descending FlightAware
08:06PM 40.7650 -73.6620 211° Southwest 150 173 2,100 60 Climbing FlightAware
08:06PM 40.7490 -73.6740 210° Southwest 150 173 2,100  Level FlightAware
08:06PM 40.7410 -73.6800 210° Southwest 151 174 2,100 -480 Level FlightAware
08:07PM 40.7240 -73.6930 210° Southwest 153 176 1,800 -780 Descending FlightAware
08:07PM 40.7070 -73.7060 210° Southwest 146 168 1,400 -720 Descending FlightAware
08:08PM 40.6940 -73.7160 210° Southwest 134 154 1,200 -660 Descending FlightAware
08:08PM 40.6810 -73.7270 213° Southwest 130 150 900 -720 Descending FlightAware
08:09PM 40.6660 -73.7380 209° Southwest 132 152 600 -660 Descending FlightAware
08:09PM 40.6604 -73.7431 215° Southwest 134 154 500 -600 Descending FlightAware ADS-B